Time,TemperatureF,DewpointF,PressureIn,WindDirection,WindDirectionDegrees,WindSpeedMPH,WindSpeedGustMPH,Humidity,HourlyPrecipIn,Conditions,Clouds,dailyrainin,SoftwareType,DateUTC
2013-08-22 00:01:00,72.0,67.5,30.02,West,270,0.7,0.7,86,0.00,,,0.00,meteobridge,2013-08-22 04:01:00,
2013-08-22 00:02:00,72.0,67.5,30.01,SE,135,1.6,1.6,86,0.00,,,0.00,meteobridge,2013-08-22 04:02:00,
2013-08-22 00:07:00,72.0,67.3,30.01,East,90,0.0,0.0,85,0.00,,,0.00,meteobridge,2013-08-22 04:07:00,
2013-08-22 00:12:00,72.0,67.3,30.01,NW,315,0.0,1.6,85,0.00,,,0.00,meteobridge,2013-08-22 04:12:00,
2013-08-22 00:18:00,71.8,67.3,30.01,NW,315,2.2,2.2,86,0.00,,,0.00,meteobridge,2013-08-22 04:18:00,
2013-08-22 00:23:00,71.8,67.3,30.01,East,90,0.7,1.6,86,0.00,,,0.00,meteobridge,2013-08-22 04:23:00,
2013-08-22 00:28:00,71.8,67.1,30.01,NE,45,0.7,0.7,85,0.00,,,0.00,meteobridge,2013-08-22 04:28:00,
2013-08-22 00:33:00,71.8,67.1,30.01,NW,315,0.7,0.7,85,0.00,,,0.00,meteobridge,2013-08-22 04:33:00,
2013-08-22 00:38:00,71.6,66.9,30.01,West,270,0.7,1.6,85,0.00,,,0.00,meteobridge,2013-08-22 04:38:00,
2013-08-22 00:44:00,71.6,66.9,30.01,West,270,0.7,0.7,85,0.00,,,0.00,meteobridge,2013-08-22 04:44:00,
2013-08-22 00:49:00,71.6,66.9,30.01,West,270,0.7,0.7,85,0.00,,,0.00,meteobridge,2013-08-22 04:49:00,
2013-08-22 00:54:00,71.6,66.9,30.01,NW,315,0.7,1.6,85,0.00,,,0.00,meteobridge,2013-08-22 04:54:00,
2013-08-22 00:59:00,71.8,67.1,30.01,West,270,0.7,1.6,85,0.00,,,0.00,meteobridge,2013-08-22 04:59:00,
2013-08-22 01:04:00,71.8,66.7,30.01,SW,225,1.6,2.2,84,0.00,,,0.00,meteobridge,2013-08-22 05:04:00,
2013-08-22 01:09:00,71.8,66.7,30.01,NW,315,1.6,1.6,84,0.00,,,0.00,meteobridge,2013-08-22 05:09:00,
2013-08-22 01:15:00,71.8,66.7,30.01,West,270,0.7,0.7,84,0.00,,,0.00,meteobridge,2013-08-22 05:15:00,
2013-08-22 01:20:00,72.0,66.9,30.01,South,180,1.6,1.6,84,0.00,,,0.00,meteobridge,2013-08-22 05:20:00,
2013-08-22 01:25:00,72.0,66.9,30.01,SW,225,1.6,1.6,84,0.00,,,0.00,meteobridge,2013-08-22 05:25:00,
2013-08-22 01:30:00,71.8,67.1,30.02,NE,45,0.7,0.7,85,0.00,,,0.00,meteobridge,2013-08-22 05:30:00,
2013-08-22 01:35:00,72.0,67.3,30.02,West,270,0.7,2.2,85,0.00,,,0.00,meteobridge,2013-08-22 05:35:00,
2013-08-22 01:40:00,72.0,67.3,30.02,SE,135,0.0,2.2,85,0.00,,,0.00,meteobridge,2013-08-22 05:40:00,
2013-08-22 01:46:00,72.1,67.5,30.02,South,180,2.2,2.2,85,0.00,,,0.00,meteobridge,2013-08-22 05:46:00,
2013-08-22 01:51:00,72.1,67.5,30.02,East,90,0.7,1.6,85,0.00,,,0.00,meteobridge,2013-08-22 05:51:00,
2013-08-22 01:56:00,72.0,67.3,30.01,North,0,1.6,1.6,85,0.00,,,0.00,meteobridge,2013-08-22 05:56:00,
2013-08-22 02:01:00,72.0,67.5,30.01,SW,225,0.7,0.7,86,0.00,,,0.00,meteobridge,2013-08-22 06:01:00,
2013-08-22 02:06:00,72.0,67.5,30.01,SW,225,0.7,0.7,86,0.00,,,0.00,meteobridge,2013-08-22 06:06:00,
2013-08-22 02:11:00,72.0,67.8,30.02,SE,135,0.7,0.7,87,0.00,,,0.00,meteobridge,2013-08-22 06:11:00,
2013-08-22 02:17:00,72.0,67.8,30.01,South,180,0.7,0.7,87,0.00,,,0.00,meteobridge,2013-08-22 06:17:00,
2013-08-22 02:22:00,72.0,67.8,30.02,NE,45,0.7,0.7,87,0.00,,,0.00,meteobridge,2013-08-22 06:22:00,
2013-08-22 02:27:00,72.0,68.2,30.02,West,270,1.6,1.6,88,0.00,,,0.00,meteobridge,2013-08-22 06:27:00,
2013-08-22 02:32:00,72.0,68.2,30.02,NW,315,1.6,1.6,88,0.00,,,0.00,meteobridge,2013-08-22 06:32:00,
2013-08-22 02:37:00,72.0,68.5,30.02,West,270,0.7,1.6,89,0.00,,,0.00,meteobridge,2013-08-22 06:37:00,
2013-08-22 02:42:00,72.0,68.5,30.02,East,90,0.7,0.7,89,0.00,,,0.00,meteobridge,2013-08-22 06:42:00,
2013-08-22 02:48:00,72.0,68.5,30.02,NW,315,0.7,2.2,89,0.00,,,0.00,meteobridge,2013-08-22 06:48:00,
2013-08-22 02:53:00,71.8,68.4,30.02,ENE,68,0.7,1.6,89,0.00,,,0.00,meteobridge,2013-08-22 06:53:00,
2013-08-22 02:58:00,71.8,68.7,30.02,NE,45,0.7,1.6,90,0.00,,,0.00,meteobridge,2013-08-22 06:58:00,
2013-08-22 03:03:00,71.8,68.7,30.01,SSW,203,2.2,2.2,90,0.00,,,0.00,meteobridge,2013-08-22 07:03:00,
2013-08-22 03:08:00,71.8,69.1,30.01,West,270,0.7,0.7,91,0.00,,,0.00,meteobridge,2013-08-22 07:08:00,
2013-08-22 03:13:00,71.8,69.1,30.01,West,270,0.0,0.0,91,0.00,,,0.00,meteobridge,2013-08-22 07:13:00,
2013-08-22 03:19:00,71.6,68.9,30.01,SW,225,1.6,1.6,91,0.00,,,0.00,meteobridge,2013-08-22 07:19:00,
2013-08-22 03:24:00,71.6,68.9,30.01,West,270,0.7,1.6,91,0.00,,,0.00,meteobridge,2013-08-22 07:24:00,
2013-08-22 03:29:00,71.6,68.9,30.01,East,90,0.0,0.7,91,0.00,,,0.00,meteobridge,2013-08-22 07:29:00,
2013-08-22 03:34:00,71.4,69.3,30.01,NW,315,0.0,0.7,93,0.00,,,0.00,meteobridge,2013-08-22 07:34:00,
2013-08-22 03:39:00,71.4,69.3,30.01,NW,315,0.0,0.7,93,0.00,,,0.00,meteobridge,2013-08-22 07:39:00,
2013-08-22 03:44:00,71.4,69.3,30.01,SW,225,1.6,1.6,93,0.00,,,0.00,meteobridge,2013-08-22 07:44:00,
2013-08-22 03:50:00,71.4,69.3,30.01,West,270,0.7,1.6,93,0.00,,,0.00,meteobridge,2013-08-22 07:50:00,
2013-08-22 03:55:00,71.4,69.3,30.01,SE,135,0.7,0.7,93,0.00,,,0.00,meteobridge,2013-08-22 07:55:00,
2013-08-22 04:00:00,71.2,69.4,30.01,SW,225,0.7,0.7,94,0.00,,,0.00,meteobridge,2013-08-22 08:00:00,
2013-08-22 04:05:00,71.2,69.4,30.01,SW,225,0.7,0.7,94,0.00,,,0.00,meteobridge,2013-08-22 08:05:00,
2013-08-22 04:10:00,71.2,69.4,30.01,South,180,0.7,1.6,94,0.00,,,0.00,meteobridge,2013-08-22 08:10:00,
2013-08-22 04:15:00,71.2,69.4,30.01,West,270,0.0,0.7,94,0.00,,,0.00,meteobridge,2013-08-22 08:15:00,
2013-08-22 04:21:00,71.1,69.3,30.00,North,0,0.0,0.7,94,0.00,,,0.00,meteobridge,2013-08-22 08:21:00,
2013-08-22 04:26:00,71.1,69.3,30.00,NE,45,0.7,0.7,94,0.00,,,0.00,meteobridge,2013-08-22 08:26:00,
2013-08-22 04:31:00,71.1,69.3,30.00,NE,45,0.7,0.7,94,0.00,,,0.00,meteobridge,2013-08-22 08:31:00,
2013-08-22 04:36:00,70.9,69.1,30.00,NW,315,0.0,0.0,94,0.00,,,0.00,meteobridge,2013-08-22 08:36:00,
2013-08-22 04:41:00,70.9,69.1,30.00,East,90,0.0,0.7,94,0.00,,,0.00,meteobridge,2013-08-22 08:41:00,
2013-08-22 04:46:00,71.1,69.6,30.00,SW,225,0.7,0.7,95,0.00,,,0.00,meteobridge,2013-08-22 08:46:00,
2013-08-22 04:52:00,71.1,69.6,30.00,West,270,1.6,1.6,95,0.00,,,0.00,meteobridge,2013-08-22 08:52:00,
2013-08-22 04:57:00,70.9,69.4,30.00,West,270,1.6,1.6,95,0.00,,,0.00,meteobridge,2013-08-22 08:57:00,
2013-08-22 05:02:00,70.9,69.4,30.00,West,270,0.0,0.7,95,0.00,,,0.00,meteobridge,2013-08-22 09:02:00,
2013-08-22 05:07:00,70.9,69.4,30.00,East,90,0.0,0.7,95,0.00,,,0.00,meteobridge,2013-08-22 09:07:00,
2013-08-22 05:12:00,70.9,69.4,30.00,SW,225,0.0,1.6,95,0.00,,,0.00,meteobridge,2013-08-22 09:12:00,
2013-08-22 05:17:00,70.9,69.4,29.99,West,270,0.7,0.7,95,0.00,,,0.00,meteobridge,2013-08-22 09:17:00,
2013-08-22 05:23:00,70.9,69.4,29.99,South,180,0.0,1.6,95,0.00,,,0.00,meteobridge,2013-08-22 09:23:00,
2013-08-22 05:28:00,70.7,69.3,29.99,SW,225,0.7,0.7,95,0.00,,,0.00,meteobridge,2013-08-22 09:28:00,
2013-08-22 05:33:00,70.7,69.3,29.99,West,270,0.0,0.7,95,0.00,,,0.00,meteobridge,2013-08-22 09:33:00,
2013-08-22 05:38:00,70.7,69.3,29.99,West,270,0.7,0.7,95,0.00,,,0.00,meteobridge,2013-08-22 09:38:00,
2013-08-22 05:43:00,70.3,68.9,29.99,West,270,0.0,0.7,95,0.00,,,0.00,meteobridge,2013-08-22 09:43:00,
2013-08-22 05:48:00,70.3,68.9,29.99,West,270,0.7,0.7,95,0.00,,,0.00,meteobridge,2013-08-22 09:48:00,
2013-08-22 05:54:00,70.2,68.7,29.99,West,270,0.0,0.0,95,0.00,,,0.00,meteobridge,2013-08-22 09:54:00,
2013-08-22 05:59:00,70.0,68.5,29.99,West,270,0.0,0.0,95,0.00,,,0.00,meteobridge,2013-08-22 09:59:00,
2013-08-22 06:04:00,70.0,68.5,29.99,West,270,0.0,0.0,95,0.00,,,0.00,meteobridge,2013-08-22 10:04:00,
2013-08-22 06:09:00,69.8,68.4,29.99,West,270,0.0,0.7,95,0.00,,,0.00,meteobridge,2013-08-22 10:09:00,
2013-08-22 06:14:00,69.6,68.4,29.99,West,270,0.0,0.0,96,0.00,,,0.00,meteobridge,2013-08-22 10:14:00,
2013-08-22 06:19:00,69.6,68.4,29.99,West,270,0.0,0.0,96,0.00,,,0.00,meteobridge,2013-08-22 10:19:00,
2013-08-22 06:25:00,69.4,68.2,29.98,West,270,0.7,0.7,96,0.00,,,0.00,meteobridge,2013-08-22 10:25:00,
2013-08-22 06:30:00,69.4,68.2,29.99,West,270,0.0,0.0,96,0.00,,,0.00,meteobridge,2013-08-22 10:30:00,
2013-08-22 06:35:00,69.6,68.7,29.98,West,270,0.0,0.0,97,0.00,,,0.00,meteobridge,2013-08-22 10:35:00,
2013-08-22 06:40:00,69.6,68.7,29.98,West,270,0.0,0.0,97,0.00,,,0.00,meteobridge,2013-08-22 10:40:00,
2013-08-22 06:45:00,69.8,68.5,29.98,NE,45,0.0,0.0,96,0.00,,,0.00,meteobridge,2013-08-22 10:45:00,
2013-08-22 06:51:00,70.0,68.7,29.98,West,270,0.7,0.7,96,0.00,,,0.00,meteobridge,2013-08-22 10:51:00,
2013-08-22 06:56:00,70.2,68.9,29.98,SE,135,0.0,0.0,96,0.00,,,0.00,meteobridge,2013-08-22 10:56:00,
2013-08-22 07:01:00,70.3,69.1,29.98,NW,315,0.7,0.7,96,0.00,,,0.00,meteobridge,2013-08-22 11:01:00,
2013-08-22 07:06:00,70.7,69.8,29.98,NW,315,0.0,0.7,97,0.00,,,0.00,meteobridge,2013-08-22 11:06:00,
2013-08-22 07:12:00,71.1,70.2,29.99,North,0,0.7,0.7,97,0.00,,,0.00,meteobridge,2013-08-22 11:12:00,
2013-08-22 07:17:00,71.2,70.3,29.98,South,180,0.7,0.7,97,0.00,,,0.00,meteobridge,2013-08-22 11:17:00,
2013-08-22 07:22:00,71.6,70.3,29.98,West,270,0.0,1.6,96,0.00,,,0.00,meteobridge,2013-08-22 11:22:00,
2013-08-22 07:27:00,72.0,70.7,29.98,West,270,0.7,1.6,96,0.00,,,0.00,meteobridge,2013-08-22 11:27:00,
2013-08-22 07:32:00,72.1,70.9,29.98,West,270,1.6,1.6,96,0.00,,,0.00,meteobridge,2013-08-22 11:32:00,
2013-08-22 07:37:00,72.7,71.4,29.98,West,270,0.0,0.7,96,0.00,,,0.00,meteobridge,2013-08-22 11:37:00,
2013-08-22 07:43:00,73.0,71.8,29.98,East,90,0.7,0.7,96,0.00,,,0.00,meteobridge,2013-08-22 11:43:00,
2013-08-22 07:48:00,73.4,72.1,29.98,West,270,1.6,1.6,96,0.00,,,0.00,meteobridge,2013-08-22 11:48:00,
2013-08-22 07:53:00,73.9,72.7,29.98,South,180,1.6,2.2,96,0.00,,,0.00,meteobridge,2013-08-22 11:53:00,
2013-08-22 07:58:00,74.1,72.7,29.98,NW,315,0.0,0.7,95,0.00,,,0.00,meteobridge,2013-08-22 11:58:00,
2013-08-22 08:03:00,75.0,73.4,29.98,NW,315,1.6,1.6,95,0.00,,,0.00,meteobridge,2013-08-22 12:03:00,
2013-08-22 08:08:00,75.2,72.7,29.98,West,270,0.0,0.7,92,0.00,,,0.00,meteobridge,2013-08-22 12:08:00,
2013-08-22 08:14:00,75.4,72.5,29.98,West,270,1.6,1.6,91,0.00,,,0.00,meteobridge,2013-08-22 12:14:00,
2013-08-22 08:27:00,75.4,72.3,29.97,SE,135,0.0,0.0,90,0.00,,,0.00,meteobridge,2013-08-22 12:27:00,
2013-08-22 08:32:00,75.7,72.7,29.97,West,270,0.0,0.0,90,0.00,,,0.00,meteobridge,2013-08-22 12:32:00,
2013-08-22 08:37:00,76.3,73.0,29.97,West,270,0.0,0.0,90,0.00,,,0.00,meteobridge,2013-08-22 12:37:00,
2013-08-22 08:42:00,77.0,73.2,29.98,NW,315,0.7,0.7,88,0.00,,,0.00,meteobridge,2013-08-22 12:42:00,
2013-08-22 08:48:00,77.5,73.4,29.98,WNW,293,1.6,1.6,87,0.00,,,0.00,meteobridge,2013-08-22 12:48:00,
2013-08-22 08:53:00,77.5,73.0,29.97,West,270,0.7,2.2,86,0.00,,,0.00,meteobridge,2013-08-22 12:53:00,
2013-08-22 08:58:00,77.7,72.9,29.97,SW,225,2.2,2.2,85,0.00,,,0.00,meteobridge,2013-08-22 12:58:00,
2013-08-22 09:02:00,77.7,72.9,29.97,West,270,0.7,1.6,85,0.00,,,0.00,meteobridge,2013-08-22 13:02:00,
2013-08-22 09:07:00,77.7,72.9,29.96,West,270,0.7,0.7,85,0.00,,,0.00,meteobridge,2013-08-22 13:07:00,
2013-08-22 09:13:00,78.1,73.2,29.97,NE,45,2.2,2.2,85,0.00,,,0.00,meteobridge,2013-08-22 13:13:00,
2013-08-22 09:18:00,78.4,73.2,29.97,NW,315,0.7,0.7,84,0.00,,,0.00,meteobridge,2013-08-22 13:18:00,
2013-08-22 09:23:00,79.3,73.8,29.97,South,180,0.7,0.7,83,0.00,,,0.00,meteobridge,2013-08-22 13:23:00,
2013-08-22 09:28:00,80.6,73.9,29.96,SW,225,0.7,0.7,80,0.00,,,0.00,meteobridge,2013-08-22 13:28:00,
2013-08-22 09:33:00,81.0,73.4,29.96,West,270,1.6,1.6,78,0.00,,,0.00,meteobridge,2013-08-22 13:33:00,
2013-08-22 09:38:00,81.5,73.6,29.96,NE,45,0.7,2.2,77,0.00,,,0.00,meteobridge,2013-08-22 13:38:00,
2013-08-22 09:44:00,82.0,73.8,29.97,North,0,0.7,1.6,76,0.00,,,0.00,meteobridge,2013-08-22 13:44:00,
2013-08-22 09:49:00,82.2,73.6,29.97,NW,315,2.2,2.2,75,0.00,,,0.00,meteobridge,2013-08-22 13:49:00,
2013-08-22 09:54:00,82.9,74.1,29.97,West,270,1.6,1.6,75,0.00,,,0.00,meteobridge,2013-08-22 13:54:00,
2013-08-22 09:59:00,84.6,74.5,29.97,SSW,203,2.2,2.2,72,0.00,,,0.00,meteobridge,2013-08-22 13:59:00,
2013-08-22 10:04:00,86.5,75.2,29.97,North,0,0.7,1.6,69,0.00,,,0.00,meteobridge,2013-08-22 14:04:00,
2013-08-22 10:09:00,87.6,74.3,29.97,West,270,2.2,2.2,65,0.00,,,0.00,meteobridge,2013-08-22 14:09:00,
2013-08-22 10:15:00,87.8,73.6,29.97,North,0,1.6,2.2,63,0.00,,,0.00,meteobridge,2013-08-22 14:15:00,
2013-08-22 10:20:00,89.1,74.8,29.97,SSE,158,0.7,0.7,63,0.00,,,0.00,meteobridge,2013-08-22 14:20:00,
2013-08-22 10:25:00,89.8,74.5,29.97,North,0,1.6,3.1,61,0.00,,,0.00,meteobridge,2013-08-22 14:25:00,
2013-08-22 10:30:00,89.8,73.6,29.97,SW,225,1.6,1.6,59,0.00,,,0.00,meteobridge,2013-08-22 14:30:00,
2013-08-22 10:35:00,90.1,74.3,29.96,SW,225,1.6,2.2,60,0.00,,,0.00,meteobridge,2013-08-22 14:35:00,
2013-08-22 10:41:00,90.1,73.9,29.96,NE,45,2.2,2.2,59,0.00,,,0.00,meteobridge,2013-08-22 14:41:00,
2013-08-22 10:46:00,89.6,73.9,29.97,East,90,3.1,3.1,60,0.00,,,0.00,meteobridge,2013-08-22 14:46:00,
2013-08-22 10:51:00,90.3,74.5,29.97,SW,225,2.2,3.1,60,0.00,,,0.00,meteobridge,2013-08-22 14:51:00,
2013-08-22 10:56:00,91.0,74.1,29.97,East,90,1.6,1.6,58,0.00,,,0.00,meteobridge,2013-08-22 14:56:00,
2013-08-22 11:01:00,91.6,74.1,29.96,North,0,1.6,1.6,57,0.00,,,0.00,meteobridge,2013-08-22 15:01:00,
2013-08-22 11:06:00,92.3,74.3,29.96,West,270,1.6,2.2,56,0.00,,,0.00,meteobridge,2013-08-22 15:06:00,
2013-08-22 11:12:00,91.8,73.2,29.96,West,270,1.6,2.2,55,0.00,,,0.00,meteobridge,2013-08-22 15:12:00,
2013-08-22 11:17:00,91.2,74.3,29.96,NE,45,1.6,2.2,58,0.00,,,0.00,meteobridge,2013-08-22 15:17:00,
2013-08-22 11:22:00,91.8,74.3,29.96,SE,135,2.2,2.2,57,0.00,,,0.00,meteobridge,2013-08-22 15:22:00,
2013-08-22 11:27:00,91.9,74.5,29.96,WNW,293,1.6,1.6,57,0.00,,,0.00,meteobridge,2013-08-22 15:27:00,
2013-08-22 11:32:00,92.1,73.6,29.96,West,270,3.1,3.8,55,0.00,,,0.00,meteobridge,2013-08-22 15:32:00,
2013-08-22 11:37:00,91.4,73.4,29.96,West,270,1.6,1.6,56,0.00,,,0.00,meteobridge,2013-08-22 15:37:00,
2013-08-22 11:43:00,91.8,74.3,29.96,NW,315,2.2,2.2,57,0.00,,,0.00,meteobridge,2013-08-22 15:43:00,
2013-08-22 11:48:00,91.9,73.9,29.95,SE,135,1.6,1.6,56,0.00,,,0.00,meteobridge,2013-08-22 15:48:00,
2013-08-22 11:53:00,91.8,73.8,29.96,South,180,2.2,2.2,56,0.00,,,0.00,meteobridge,2013-08-22 15:53:00,
2013-08-22 11:58:00,90.0,72.7,29.95,NE,45,0.7,0.7,57,0.00,,,0.00,meteobridge,2013-08-22 15:58:00,
2013-08-22 12:03:00,88.3,72.7,29.96,SE,135,0.7,0.7,60,0.00,,,0.00,meteobridge,2013-08-22 16:03:00,
2013-08-22 12:08:00,87.8,72.7,29.95,SE,135,1.6,2.2,61,0.00,,,0.00,meteobridge,2013-08-22 16:08:00,
2013-08-22 12:14:00,87.4,73.2,29.95,North,0,2.2,2.2,63,0.00,,,0.00,meteobridge,2013-08-22 16:14:00,
2013-08-22 12:19:00,87.4,73.2,29.95,West,270,1.6,1.6,63,0.00,,,0.00,meteobridge,2013-08-22 16:19:00,
2013-08-22 12:24:00,86.9,73.2,29.95,SE,135,0.7,1.6,64,0.00,,,0.00,meteobridge,2013-08-22 16:24:00,
2013-08-22 12:29:00,86.7,73.0,29.95,West,270,0.7,0.7,64,0.00,,,0.00,meteobridge,2013-08-22 16:29:00,
2013-08-22 12:34:00,86.5,73.4,29.95,WSW,248,1.6,1.6,65,0.00,,,0.00,meteobridge,2013-08-22 16:34:00,
2013-08-22 12:39:00,86.5,73.4,29.95,North,0,1.6,1.6,65,0.00,,,0.00,meteobridge,2013-08-22 16:39:00,
2013-08-22 12:45:00,87.1,73.9,29.94,WNW,293,0.7,2.2,65,0.00,,,0.00,meteobridge,2013-08-22 16:45:00,
2013-08-22 12:50:00,88.2,73.4,29.95,NW,315,2.2,2.2,62,0.00,,,0.00,meteobridge,2013-08-22 16:50:00,
2013-08-22 12:55:00,88.2,73.4,29.94,North,0,1.6,1.6,62,0.00,,,0.00,meteobridge,2013-08-22 16:55:00,
2013-08-22 13:00:00,88.3,72.7,29.94,South,180,1.6,3.1,60,0.00,,,0.00,meteobridge,2013-08-22 17:00:00,
2013-08-22 13:05:00,88.3,73.6,29.94,NW,315,1.6,1.6,62,0.00,,,0.00,meteobridge,2013-08-22 17:05:00,
2013-08-22 13:10:00,87.8,72.7,29.94,SW,225,1.6,2.2,61,0.00,,,0.00,meteobridge,2013-08-22 17:10:00,
2013-08-22 13:16:00,87.6,73.4,29.94,East,90,1.6,1.6,63,0.00,,,0.00,meteobridge,2013-08-22 17:16:00,
2013-08-22 13:21:00,88.0,73.4,29.94,North,0,1.6,1.6,62,0.00,,,0.00,meteobridge,2013-08-22 17:21:00,
2013-08-22 13:26:00,87.6,73.4,29.93,SE,135,1.6,2.2,63,0.00,,,0.00,meteobridge,2013-08-22 17:26:00,
2013-08-22 13:31:00,87.4,73.8,29.93,North,0,3.1,3.1,64,0.00,,,0.00,meteobridge,2013-08-22 17:31:00,
2013-08-22 13:36:00,87.1,73.4,29.93,West,270,0.7,1.6,64,0.00,,,0.00,meteobridge,2013-08-22 17:36:00,
2013-08-22 13:41:00,86.5,73.4,29.93,NE,45,0.7,1.6,65,0.00,,,0.00,meteobridge,2013-08-22 17:41:00,
2013-08-22 13:47:00,85.6,73.4,29.93,South,180,1.6,2.2,67,0.00,,,0.00,meteobridge,2013-08-22 17:47:00,
2013-08-22 13:52:00,84.9,73.2,29.93,NW,315,3.1,3.1,68,0.00,,,0.00,meteobridge,2013-08-22 17:52:00,
2013-08-22 13:57:00,84.4,73.0,29.93,SW,225,2.2,3.1,69,0.00,,,0.00,meteobridge,2013-08-22 17:57:00,
2013-08-22 14:02:00,83.5,72.7,29.93,SW,225,0.7,1.6,70,0.00,,,0.00,meteobridge,2013-08-22 18:02:00,
2013-08-22 14:07:00,83.5,73.0,29.92,NW,315,0.7,0.7,71,0.00,,,0.00,meteobridge,2013-08-22 18:07:00,
2013-08-22 14:12:00,83.1,72.7,29.92,South,180,0.7,1.6,71,0.00,,,0.00,meteobridge,2013-08-22 18:12:00,
2013-08-22 14:18:00,83.1,73.2,29.92,NW,315,1.6,1.6,72,0.00,,,0.00,meteobridge,2013-08-22 18:18:00,
2013-08-22 14:23:00,82.9,73.4,29.92,North,0,2.2,2.2,73,0.00,,,0.00,meteobridge,2013-08-22 18:23:00,
2013-08-22 14:28:00,82.2,72.7,29.92,North,0,1.6,1.6,73,0.00,,,0.00,meteobridge,2013-08-22 18:28:00,
2013-08-22 14:33:00,81.7,72.5,29.91,West,270,0.7,1.6,74,0.00,,,0.00,meteobridge,2013-08-22 18:33:00,
2013-08-22 14:38:00,81.0,72.0,29.92,SE,135,1.6,2.2,74,0.00,,,0.00,meteobridge,2013-08-22 18:38:00,
2013-08-22 14:43:00,80.8,71.8,29.91,East,90,1.6,2.2,74,0.00,,,0.00,meteobridge,2013-08-22 18:43:00,
2013-08-22 14:49:00,80.6,71.6,29.92,NE,45,1.6,1.6,74,0.00,,,0.00,meteobridge,2013-08-22 18:49:00,
2013-08-22 14:54:00,80.4,71.8,29.91,SE,135,2.2,2.2,75,0.00,,,0.00,meteobridge,2013-08-22 18:54:00,
2013-08-22 14:59:00,80.2,71.6,29.91,South,180,1.6,1.6,75,0.00,,,0.00,meteobridge,2013-08-22 18:59:00,
2013-08-22 15:04:00,80.2,72.0,29.91,NE,45,1.6,1.6,76,0.00,,,0.00,meteobridge,2013-08-22 19:04:00,
2013-08-22 15:09:00,80.1,71.8,29.91,West,270,0.7,1.6,76,0.00,,,0.00,meteobridge,2013-08-22 19:09:00,
2013-08-22 15:14:00,80.1,72.1,29.90,NE,45,0.7,1.6,77,0.00,,,0.00,meteobridge,2013-08-22 19:14:00,
2013-08-22 15:20:00,80.1,72.1,29.90,SSW,203,1.6,1.6,77,0.00,,,0.00,meteobridge,2013-08-22 19:20:00,
2013-08-22 15:25:00,79.9,72.0,29.90,NW,315,1.6,1.6,77,0.00,,,0.00,meteobridge,2013-08-22 19:25:00,
2013-08-22 15:30:00,79.7,71.8,29.90,West,270,1.6,1.6,77,0.00,,,0.00,meteobridge,2013-08-22 19:30:00,
2013-08-22 15:35:00,79.5,71.6,29.90,SW,225,0.7,2.2,77,0.00,,,0.00,meteobridge,2013-08-22 19:35:00,
2013-08-22 15:40:00,79.5,72.1,29.90,NW,315,0.7,1.6,78,0.00,,,0.00,meteobridge,2013-08-22 19:40:00,
2013-08-22 15:45:00,79.3,72.3,29.90,West,270,1.6,1.6,79,0.00,,,0.00,meteobridge,2013-08-22 19:45:00,
2013-08-22 15:51:00,79.2,71.8,29.90,West,270,0.7,1.6,78,0.00,,,0.00,meteobridge,2013-08-22 19:51:00,
2013-08-22 15:56:00,79.0,71.6,29.90,SE,135,0.7,1.6,78,0.00,,,0.00,meteobridge,2013-08-22 19:56:00,
2013-08-22 16:01:00,78.8,71.4,29.90,WSW,248,0.7,2.2,78,0.00,,,0.00,meteobridge,2013-08-22 20:01:00,
2013-08-22 16:06:00,78.4,71.4,29.89,SW,225,2.2,2.2,79,0.00,,,0.00,meteobridge,2013-08-22 20:06:00,
2013-08-22 16:11:00,78.3,71.6,29.89,East,90,0.7,1.6,80,0.00,,,0.00,meteobridge,2013-08-22 20:11:00,
2013-08-22 16:17:00,78.1,71.8,29.89,West,270,0.7,1.6,81,0.00,,,0.00,meteobridge,2013-08-22 20:17:00,
2013-08-22 16:22:00,78.1,72.1,29.89,West,270,1.6,1.6,82,0.00,,,0.00,meteobridge,2013-08-22 20:22:00,
2013-08-22 16:27:00,78.1,72.1,29.88,East,90,0.7,0.7,82,0.00,,,0.00,meteobridge,2013-08-22 20:27:00,
2013-08-22 16:32:00,78.1,72.1,29.88,East,90,0.7,2.2,82,0.00,,,0.00,meteobridge,2013-08-22 20:32:00,
2013-08-22 16:37:00,78.1,72.1,29.88,SW,225,1.6,2.2,82,0.00,,,0.00,meteobridge,2013-08-22 20:37:00,
2013-08-22 16:42:00,78.1,72.1,29.87,West,270,1.6,2.2,82,0.00,,,0.00,meteobridge,2013-08-22 20:42:00,
2013-08-22 16:48:00,77.9,72.0,29.87,East,90,0.7,0.7,82,0.00,,,0.00,meteobridge,2013-08-22 20:48:00,
2013-08-22 16:53:00,77.9,72.3,29.86,West,270,0.7,1.6,83,0.00,,,0.00,meteobridge,2013-08-22 20:53:00,
2013-08-22 16:58:00,77.9,72.3,29.86,East,90,3.1,3.1,83,0.00,,,0.00,meteobridge,2013-08-22 20:58:00,
2013-08-22 17:03:00,78.1,72.5,29.86,SE,135,0.7,1.6,83,0.00,,,0.00,meteobridge,2013-08-22 21:03:00,
2013-08-22 17:08:00,78.1,72.1,29.86,SE,135,2.2,3.1,82,0.00,,,0.00,meteobridge,2013-08-22 21:08:00,
2013-08-22 17:13:00,78.1,72.1,29.86,West,270,0.7,1.6,82,0.00,,,0.00,meteobridge,2013-08-22 21:13:00,
2013-08-22 17:19:00,78.1,71.8,29.86,NE,45,0.7,2.2,81,0.00,,,0.00,meteobridge,2013-08-22 21:19:00,
2013-08-22 17:24:00,77.9,71.6,29.86,NE,45,0.7,1.6,81,0.00,,,0.00,meteobridge,2013-08-22 21:24:00,
2013-08-22 17:29:00,77.9,72.0,29.86,NE,45,3.1,3.1,82,0.00,,,0.00,meteobridge,2013-08-22 21:29:00,
2013-08-22 17:34:00,77.9,72.0,29.86,NW,315,0.7,2.2,82,0.00,,,0.00,meteobridge,2013-08-22 21:34:00,
2013-08-22 17:39:00,77.9,72.0,29.86,SW,225,5.4,5.4,82,0.00,,,0.00,meteobridge,2013-08-22 21:39:00,
2013-08-22 17:44:00,77.7,71.4,29.85,South,180,1.6,3.1,81,0.00,,,0.00,meteobridge,2013-08-22 21:44:00,
2013-08-22 17:50:00,77.5,71.2,29.85,NW,315,2.2,3.1,81,0.00,,,0.00,meteobridge,2013-08-22 21:50:00,
2013-08-22 17:55:00,77.4,71.1,29.85,SE,135,1.6,1.6,81,0.00,,,0.00,meteobridge,2013-08-22 21:55:00,
2013-08-22 18:00:00,77.2,70.9,29.85,SE,135,0.7,1.6,81,0.00,,,0.00,meteobridge,2013-08-22 22:00:00,
2013-08-22 18:05:00,77.2,70.9,29.85,North,0,1.6,1.6,81,0.00,,,0.00,meteobridge,2013-08-22 22:05:00,
2013-08-22 18:10:00,76.8,70.9,29.85,ENE,68,2.2,3.1,82,0.00,,,0.00,meteobridge,2013-08-22 22:10:00,
2013-08-22 18:15:00,76.6,70.7,29.85,NW,315,2.2,2.2,82,0.00,,,0.00,meteobridge,2013-08-22 22:15:00,
2013-08-22 18:21:00,76.3,70.3,29.85,North,0,1.6,2.2,82,0.00,,,0.00,meteobridge,2013-08-22 22:21:00,
2013-08-22 18:26:00,76.3,70.7,29.85,NW,315,1.6,1.6,83,0.00,,,0.00,meteobridge,2013-08-22 22:26:00,
2013-08-22 18:31:00,76.1,70.9,29.85,West,270,2.2,2.2,84,0.00,,,0.00,meteobridge,2013-08-22 22:31:00,
2013-08-22 18:36:00,75.9,71.1,29.85,NW,315,2.2,2.2,85,0.00,,,0.00,meteobridge,2013-08-22 22:36:00,
2013-08-22 18:41:00,75.6,70.7,29.85,East,90,1.6,3.1,85,0.00,,,0.00,meteobridge,2013-08-22 22:41:00,
2013-08-22 18:46:00,75.4,70.9,29.85,South,180,2.2,3.1,86,0.00,,,0.00,meteobridge,2013-08-22 22:46:00,
2013-08-22 18:52:00,75.2,71.1,29.86,SE,135,0.7,2.2,87,0.00,,,0.00,meteobridge,2013-08-22 22:52:00,
2013-08-22 18:57:00,75.0,71.2,29.86,NW,315,2.2,2.2,88,0.00,,,0.00,meteobridge,2013-08-22 22:57:00,
2013-08-22 19:02:00,74.5,71.1,29.86,SE,135,2.2,2.2,89,0.00,,,0.00,meteobridge,2013-08-22 23:02:00,
2013-08-22 19:07:00,74.3,70.9,29.86,East,90,1.6,1.6,89,0.00,,,0.00,meteobridge,2013-08-22 23:07:00,
2013-08-22 19:12:00,74.1,71.1,29.87,NE,45,2.2,2.2,90,0.00,,,0.00,meteobridge,2013-08-22 23:12:00,
2013-08-22 19:17:00,74.1,71.1,29.86,ENE,68,0.7,1.6,90,0.00,,,0.00,meteobridge,2013-08-22 23:17:00,
2013-08-22 19:23:00,74.1,71.2,29.86,South,180,1.6,2.2,91,0.00,,,0.00,meteobridge,2013-08-22 23:23:00,
2013-08-22 19:28:00,74.1,71.2,29.85,SE,135,3.1,3.1,91,0.00,,,0.00,meteobridge,2013-08-22 23:28:00,
2013-08-22 19:33:00,74.1,71.6,29.86,SW,225,3.8,3.8,92,0.00,,,0.00,meteobridge,2013-08-22 23:33:00,
2013-08-22 19:38:00,73.9,71.4,29.86,NE,45,0.7,3.1,92,0.00,,,0.00,meteobridge,2013-08-22 23:38:00,
2013-08-22 19:43:00,73.9,71.4,29.86,West,270,0.7,1.6,92,0.00,,,0.00,meteobridge,2013-08-22 23:43:00,
2013-08-22 19:48:00,74.1,71.6,29.87,NW,315,1.6,2.2,92,0.00,,,0.00,meteobridge,2013-08-22 23:48:00,
2013-08-22 19:54:00,74.1,71.6,29.86,West,270,3.1,3.1,92,0.00,,,0.00,meteobridge,2013-08-22 23:54:00,
2013-08-22 19:59:00,74.1,71.6,29.86,NE,45,1.6,3.8,92,0.00,,,0.00,meteobridge,2013-08-22 23:59:00,
2013-08-22 20:04:00,74.1,72.0,29.86,SW,225,1.6,2.2,93,0.00,,,0.00,meteobridge,2013-08-23 00:04:00,
2013-08-22 20:09:00,74.1,72.0,29.86,West,270,1.6,1.6,93,0.00,,,0.00,meteobridge,2013-08-23 00:09:00,
2013-08-22 20:14:00,74.1,72.0,29.86,NW,315,3.1,3.1,93,0.00,,,0.00,meteobridge,2013-08-23 00:14:00,
2013-08-22 20:19:00,74.1,72.0,29.86,East,90,3.8,3.8,93,0.00,,,0.00,meteobridge,2013-08-23 00:19:00,
2013-08-22 20:25:00,74.1,72.0,29.86,NE,45,1.6,1.6,93,0.00,,,0.00,meteobridge,2013-08-23 00:25:00,
2013-08-22 20:30:00,74.1,72.0,29.87,SSW,203,0.7,1.6,93,0.00,,,0.00,meteobridge,2013-08-23 00:30:00,
2013-08-22 20:35:00,74.1,72.0,29.87,South,180,2.2,2.2,93,0.00,,,0.00,meteobridge,2013-08-23 00:35:00,
2013-08-22 20:40:00,74.1,72.0,29.87,North,0,0.7,0.7,93,0.00,,,0.00,meteobridge,2013-08-23 00:40:00,
2013-08-22 20:45:00,74.1,72.0,29.86,NW,315,1.6,2.2,93,0.00,,,0.00,meteobridge,2013-08-23 00:45:00,
2013-08-22 20:50:00,74.3,72.1,29.87,West,270,1.6,1.6,93,0.00,,,0.00,meteobridge,2013-08-23 00:50:00,
2013-08-22 20:56:00,74.3,72.1,29.86,West,270,1.6,2.2,93,0.00,,,0.00,meteobridge,2013-08-23 00:56:00,
2013-08-22 21:01:00,74.3,72.1,29.86,East,90,1.6,1.6,93,0.00,,,0.00,meteobridge,2013-08-23 01:01:00,
2013-08-22 21:06:00,74.3,72.1,29.86,SE,135,1.6,2.2,93,0.00,,,0.00,meteobridge,2013-08-23 01:06:00,
2013-08-22 21:11:00,74.3,72.1,29.85,West,270,2.2,2.2,93,0.00,,,0.00,meteobridge,2013-08-23 01:11:00,
2013-08-22 21:16:00,74.3,72.1,29.85,North,0,1.6,1.6,93,0.00,,,0.00,meteobridge,2013-08-23 01:16:00,
2013-08-22 21:21:00,74.3,72.1,29.85,SW,225,3.1,3.1,93,0.00,,,0.00,meteobridge,2013-08-23 01:21:00,
2013-08-22 21:27:00,74.3,72.1,29.85,SW,225,1.6,2.2,93,0.00,,,0.00,meteobridge,2013-08-23 01:27:00,
2013-08-22 21:32:00,74.3,71.8,29.85,SW,225,1.6,1.6,92,0.00,,,0.00,meteobridge,2013-08-23 01:32:00,
2013-08-22 21:37:00,74.3,71.8,29.85,SE,135,1.6,3.1,92,0.00,,,0.00,meteobridge,2013-08-23 01:37:00,
2013-08-22 21:42:00,74.3,71.8,29.85,West,270,1.6,3.1,92,0.00,,,0.00,meteobridge,2013-08-23 01:42:00,
2013-08-22 21:47:00,74.1,71.6,29.85,North,0,1.6,2.2,92,0.00,,,0.00,meteobridge,2013-08-23 01:47:00,
2013-08-22 21:52:00,74.1,71.6,29.85,West,270,1.6,1.6,92,0.00,,,0.00,meteobridge,2013-08-23 01:52:00,
2013-08-22 21:58:00,74.1,71.6,29.84,NE,45,0.7,0.7,92,0.00,,,0.00,meteobridge,2013-08-23 01:58:00,
2013-08-22 22:03:00,73.9,71.4,29.84,WNW,293,1.6,3.8,92,0.00,,,0.00,meteobridge,2013-08-23 02:03:00,
2013-08-22 22:08:00,73.9,71.4,29.84,South,180,2.2,2.2,92,0.00,,,0.00,meteobridge,2013-08-23 02:08:00,
2013-08-22 22:13:00,73.8,71.2,29.84,South,180,2.2,2.2,92,0.00,,,0.00,meteobridge,2013-08-23 02:13:00,
2013-08-22 22:18:00,73.8,71.2,29.84,NE,45,2.2,2.2,92,0.00,,,0.00,meteobridge,2013-08-23 02:18:00,
2013-08-22 22:23:00,73.8,71.6,29.84,East,90,4.5,4.5,93,0.00,,,0.00,meteobridge,2013-08-23 02:23:00,
2013-08-22 22:29:00,73.9,71.8,29.84,North,0,1.6,3.1,93,0.00,,,0.00,meteobridge,2013-08-23 02:29:00,
2013-08-22 22:34:00,73.9,71.8,29.84,East,90,2.2,2.2,93,0.00,,,0.00,meteobridge,2013-08-23 02:34:00,
2013-08-22 22:39:00,73.9,71.8,29.84,NW,315,4.5,4.5,93,0.00,,,0.00,meteobridge,2013-08-23 02:39:00,
2013-08-22 22:44:00,73.8,71.6,29.84,North,0,0.0,1.6,93,0.00,,,0.00,meteobridge,2013-08-23 02:44:00,
2013-08-22 22:49:00,73.8,71.6,29.84,NW,315,1.6,2.2,93,0.00,,,0.00,meteobridge,2013-08-23 02:49:00,
2013-08-22 22:55:00,73.8,71.6,29.84,SW,225,3.1,3.1,93,0.00,,,0.00,meteobridge,2013-08-23 02:55:00,
2013-08-22 23:00:00,73.8,71.2,29.84,NW,315,3.1,4.5,92,0.00,,,0.00,meteobridge,2013-08-23 03:00:00,
2013-08-22 23:05:00,73.8,71.2,29.83,West,270,1.6,1.6,92,0.00,,,0.00,meteobridge,2013-08-23 03:05:00,
2013-08-22 23:10:00,73.6,71.1,29.83,East,90,1.6,1.6,92,0.00,,,0.00,meteobridge,2013-08-23 03:10:00,
2013-08-22 23:15:00,73.6,71.1,29.83,SE,135,1.6,2.2,92,0.00,,,0.00,meteobridge,2013-08-23 03:15:00,
2013-08-22 23:20:00,73.6,71.1,29.83,West,270,0.7,2.2,92,0.00,,,0.00,meteobridge,2013-08-23 03:20:00,
2013-08-22 23:26:00,73.6,71.4,29.83,WNW,293,0.7,0.7,93,0.00,,,0.00,meteobridge,2013-08-23 03:26:00,
2013-08-22 23:31:00,73.6,71.4,29.83,NW,315,2.2,2.2,93,0.00,,,0.00,meteobridge,2013-08-23 03:31:00,
2013-08-22 23:36:00,73.6,71.4,29.83,East,90,0.7,3.1,93,0.00,,,0.00,meteobridge,2013-08-23 03:36:00,
2013-08-22 23:41:00,73.6,71.4,29.83,West,270,1.6,3.8,93,0.00,,,0.00,meteobridge,2013-08-23 03:41:00,
2013-08-22 23:46:00,73.4,71.2,29.82,NW,315,1.6,1.6,93,0.00,,,0.00,meteobridge,2013-08-23 03:46:00,
2013-08-22 23:51:00,73.4,71.2,29.82,East,90,1.6,1.6,93,0.00,,,0.00,meteobridge,2013-08-23 03:51:00,
2013-08-22 23:57:00,73.4,71.2,29.82,East,90,1.6,4.5,93,0.00,,,0.00,meteobridge,2013-08-23 03:57:00,